Hlavní strana
METAR-TAF:

METAR-TAF

Letiště :

Siler City, Severní Karolína, Spojené státy americké

zeměpisná šířka: 35-42-15N, zeměpisná délka: 079-30-15W, výška: 187 m

Aktuální stav počasí

Zpráva byla vytvořena před 24 minutami, v 23:35 UTC
Jihozápadní vítr 8 kt
Teplota 12°C
Vlhkost vzduchu 76%
Tlak 1002 hPa
Viditelnost: 16.1 km
Polojasno ve výšce 4700 ft
Polojasno ve výšce 6000 ft
Zataženo ve výšce 6500 ft

METAR: KSCR 302335Z AUTO 23008KT 10SM SCT047 SCT060 OVC065 12/08 A2960 RMK AO2 T01210076

Čas: 18:59 (23:59 UTC)


TAF: chybějící

Stav a předpovědi počasí z více než 4 000 letišť (zprávy METAR a TAF).

Červené a žluté tečky na mapě představují dostupné meteorologické stanice.

Když kurzor umístíte na tečku, zobrazí se název stanice.

Pak kliknutím zobrazíte stav a předpověď počasí.

Chcete-li změnit mapu, kliknutím na zelené tlačítko se znaménkem +mapu přiblížíte, kliknutím na zelené tlačítko se znaménkem – mapu oddálíte a kliknutím na zelené šipky přejdete na sousední mapy.


METAR-TAF: